THY9TF LTFM-EDDB
Flight info
| Callsign | THY9TF |
|---|---|
| Flight time | N/A |
| Altitude | 40000 |
| Route | IBLAX P727 BGS L622 GONGO DCT KOMAN DCT NARKA DCT DEMOP DCT MAKAL DCT ETUDA DCT BEFRE T204 NUKRO NUKRO1R |
| Aircraft | A359/H-SDE2E3GHIJ3J4J5LM1ORWXY/LB1D1 |
Departure
| Time | 2026-02-19 11:44 |
|---|---|
| Airport | İstanbul Airport (LTFM) |
Arrival
| Time | N/A |
|---|---|
| Airport | Berlin Brandenburg Airport (EDDB) |
| Time | Latitude | Longitude | Altitude | Speed | Heading |
|---|---|---|---|---|---|
| 2026-02-19 11:18 | 41.26798 | 28.73614 | 340 ft | 0 kts | 178° |
| 2026-02-19 11:27 | 41.26802 | 28.73614 | 334 ft | 2 kts | 178° |
| 2026-02-19 11:28 | 41.26821 | 28.73613 | 340 ft | 3 kts | 177° |
| 2026-02-19 11:28 | 41.26855 | 28.73618 | 340 ft | 3 kts | 214° |
| 2026-02-19 11:28 | 41.26866 | 28.73630 | 340 ft | 3 kts | 244° |
| 2026-02-19 11:29 | 41.26872 | 28.73652 | 336 ft | 3 kts | 265° |
| 2026-02-19 11:29 | 41.26873 | 28.73675 | 340 ft | 1 kts | 269° |
| 2026-02-19 11:29 | 41.26874 | 28.73691 | 340 ft | 2 kts | 269° |
| 2026-02-19 11:29 | 41.26874 | 28.73696 | 340 ft | 0 kts | 269° |
| 2026-02-19 11:33 | 41.26874 | 28.73692 | 340 ft | 1 kts | 269° |
| 2026-02-19 11:33 | 41.26873 | 28.73653 | 340 ft | 7 kts | 269° |
| 2026-02-19 11:34 | 41.26872 | 28.73580 | 340 ft | 9 kts | 269° |
| 2026-02-19 11:34 | 41.26871 | 28.73484 | 338 ft | 11 kts | 269° |
| 2026-02-19 11:34 | 41.26869 | 28.73369 | 335 ft | 14 kts | 269° |
| 2026-02-19 11:34 | 41.26867 | 28.73234 | 340 ft | 16 kts | 269° |
| 2026-02-19 11:35 | 41.26865 | 28.73082 | 337 ft | 17 kts | 269° |
| 2026-02-19 11:35 | 41.26889 | 28.72998 | 336 ft | 4 kts | 334° |
| 2026-02-19 11:35 | 41.26924 | 28.72990 | 340 ft | 6 kts | 354° |
| 2026-02-19 11:35 | 41.26977 | 28.72985 | 335 ft | 9 kts | 356° |
| 2026-02-19 11:36 | 41.27049 | 28.72982 | 334 ft | 12 kts | 0° |
| 2026-02-19 11:36 | 41.27244 | 28.72982 | 336 ft | 16 kts | 360° |
| 2026-02-19 11:36 | 41.27366 | 28.72980 | 335 ft | 19 kts | 359° |
| 2026-02-19 11:37 | 41.27503 | 28.72975 | 340 ft | 21 kts | 359° |
| 2026-02-19 11:37 | 41.27652 | 28.72970 | 335 ft | 22 kts | 359° |
| 2026-02-19 11:37 | 41.27813 | 28.72967 | 335 ft | 24 kts | 359° |
| 2026-02-19 11:37 | 41.27988 | 28.72965 | 336 ft | 26 kts | 359° |
| 2026-02-19 11:38 | 41.28172 | 28.72958 | 338 ft | 27 kts | 359° |
| 2026-02-19 11:38 | 41.28364 | 28.72954 | 338 ft | 28 kts | 359° |
| 2026-02-19 11:38 | 41.28540 | 28.72950 | 340 ft | 7 kts | 359° |
| 2026-02-19 11:38 | 41.28597 | 28.72948 | 336 ft | 10 kts | 359° |
| 2026-02-19 11:39 | 41.28674 | 28.72946 | 335 ft | 12 kts | 359° |
| 2026-02-19 11:39 | 41.28767 | 28.72943 | 338 ft | 15 kts | 359° |
| 2026-02-19 11:39 | 41.28879 | 28.72940 | 335 ft | 17 kts | 359° |
| 2026-02-19 11:39 | 41.29006 | 28.72937 | 335 ft | 19 kts | 359° |
| 2026-02-19 11:40 | 41.29147 | 28.72935 | 336 ft | 21 kts | 359° |
| 2026-02-19 11:40 | 41.29470 | 28.72930 | 336 ft | 25 kts | 359° |
| 2026-02-19 11:40 | 41.29647 | 28.72926 | 336 ft | 24 kts | 359° |
| 2026-02-19 11:41 | 41.29789 | 28.72924 | 340 ft | 18 kts | 359° |
| 2026-02-19 11:41 | 41.29871 | 28.72865 | 337 ft | 12 kts | 290° |
| 2026-02-19 11:41 | 41.29883 | 28.72755 | 340 ft | 13 kts | 274° |
| 2026-02-19 11:41 | 41.29880 | 28.72630 | 335 ft | 14 kts | 266° |
| 2026-02-19 11:42 | 41.29874 | 28.72490 | 340 ft | 15 kts | 266° |
| 2026-02-19 11:42 | 41.29866 | 28.72457 | 340 ft | 0 kts | 232° |
| 2026-02-19 11:42 | 41.29862 | 28.72452 | 340 ft | 2 kts | 225° |
| 2026-02-19 11:42 | 41.29844 | 28.72444 | 340 ft | 3 kts | 189° |
| 2026-02-19 11:43 | 41.29837 | 28.72445 | 340 ft | 0 kts | 181° |
| 2026-02-19 11:43 | 41.29825 | 28.72444 | 336 ft | 8 kts | 181° |
| 2026-02-19 11:43 | 41.29633 | 28.72445 | 339 ft | 59 kts | 179° |
| 2026-02-19 11:43 | 41.29000 | 28.72463 | 335 ft | 121 kts | 179° |
| 2026-02-19 11:44 | 41.27973 | 28.72486 | 449 ft | 164 kts | 179° |
| 2026-02-19 11:44 | 41.25830 | 28.72610 | 2074 ft | 151 kts | 178° |
| 2026-02-19 11:44 | 41.24781 | 28.72662 | 2574 ft | 158 kts | 179° |
| 2026-02-19 11:45 | 41.23611 | 28.72710 | 2836 ft | 179 kts | 180° |
| 2026-02-19 11:45 | 41.22280 | 28.72763 | 3059 ft | 203 kts | 180° |
| 2026-02-19 11:45 | 41.20788 | 28.72769 | 3322 ft | 224 kts | 184° |
| 2026-02-19 11:45 | 41.19273 | 28.72142 | 3710 ft | 235 kts | 212° |
| 2026-02-19 11:46 | 41.18224 | 28.70500 | 4248 ft | 241 kts | 244° |
| 2026-02-19 11:46 | 41.17921 | 28.68303 | 4891 ft | 245 kts | 266° |
| 2026-02-19 11:46 | 41.17935 | 28.66024 | 5608 ft | 248 kts | 270° |
| 2026-02-19 11:46 | 41.17966 | 28.63724 | 6298 ft | 251 kts | 270° |
| 2026-02-19 11:47 | 41.17981 | 28.61394 | 6997 ft | 253 kts | 270° |
| 2026-02-19 11:47 | 41.18196 | 28.59066 | 7614 ft | 258 kts | 283° |
| 2026-02-19 11:47 | 41.19029 | 28.56971 | 8238 ft | 265 kts | 307° |
| 2026-02-19 11:47 | 41.20520 | 28.55473 | 8931 ft | 271 kts | 330° |
| 2026-02-19 11:48 | 41.22379 | 28.54937 | 9593 ft | 280 kts | 354° |
| 2026-02-19 11:48 | 41.26292 | 28.55146 | 10662 ft | 293 kts | 357° |
| 2026-02-19 11:48 | 41.28374 | 28.55180 | 11011 ft | 305 kts | 356° |
| 2026-02-19 11:49 | 41.30543 | 28.55195 | 11339 ft | 318 kts | 357° |
| 2026-02-19 11:49 | 41.32778 | 28.55422 | 11833 ft | 325 kts | 1° |
| 2026-02-19 11:49 | 41.35045 | 28.55759 | 12379 ft | 328 kts | 2° |
| 2026-02-19 11:49 | 41.37303 | 28.56008 | 12885 ft | 329 kts | 357° |
| 2026-02-19 11:50 | 41.39572 | 28.55674 | 13395 ft | 326 kts | 344° |
| 2026-02-19 11:50 | 41.41741 | 28.54823 | 13970 ft | 325 kts | 338° |
| 2026-02-19 11:50 | 41.43865 | 28.53823 | 14449 ft | 324 kts | 334° |
| 2026-02-19 11:50 | 41.45697 | 28.52088 | 14830 ft | 323 kts | 314° |
| 2026-02-19 11:51 | 41.47332 | 28.50033 | 15220 ft | 327 kts | 322° |
| 2026-02-19 11:51 | 41.49449 | 28.48865 | 15702 ft | 336 kts | 343° |
| 2026-02-19 11:51 | 41.51791 | 28.48537 | 16222 ft | 339 kts | 350° |
| 2026-02-19 11:51 | 41.54137 | 28.48169 | 16697 ft | 340 kts | 346° |
| 2026-02-19 11:52 | 41.56456 | 28.47546 | 17179 ft | 340 kts | 342° |
| 2026-02-19 11:52 | 41.60985 | 28.45830 | 18126 ft | 341 kts | 338° |
| 2026-02-19 11:52 | 41.63247 | 28.44853 | 18601 ft | 342 kts | 337° |
| 2026-02-19 11:53 | 41.65511 | 28.43841 | 19050 ft | 343 kts | 337° |
| 2026-02-19 11:53 | 41.67779 | 28.42807 | 19489 ft | 346 kts | 336° |
| 2026-02-19 11:53 | 41.70063 | 28.41756 | 19935 ft | 347 kts | 336° |
| 2026-02-19 11:53 | 41.72346 | 28.40699 | 20360 ft | 348 kts | 336° |
| 2026-02-19 11:54 | 41.74650 | 28.39626 | 20766 ft | 350 kts | 336° |
| 2026-02-19 11:54 | 41.76957 | 28.38552 | 21164 ft | 352 kts | 336° |
| 2026-02-19 11:54 | 41.79277 | 28.37471 | 21563 ft | 354 kts | 336° |
| 2026-02-19 11:55 | 41.83951 | 28.35288 | 22345 ft | 357 kts | 335° |
| 2026-02-19 11:55 | 41.86276 | 28.34206 | 22684 ft | 359 kts | 335° |
| 2026-02-19 11:55 | 41.88640 | 28.33102 | 23037 ft | 361 kts | 335° |
| 2026-02-19 11:55 | 41.91019 | 28.31992 | 23406 ft | 362 kts | 335° |
| 2026-02-19 11:56 | 41.93403 | 28.30876 | 23746 ft | 363 kts | 335° |
| 2026-02-19 11:56 | 41.97857 | 28.27809 | 24396 ft | 358 kts | 320° |
| 2026-02-19 11:56 | 41.99702 | 28.25598 | 24771 ft | 356 kts | 312° |
| 2026-02-19 11:57 | 42.01318 | 28.23083 | 25104 ft | 355 kts | 307° |
| 2026-02-19 11:57 | 42.02773 | 28.20399 | 25449 ft | 356 kts | 304° |
| 2026-02-19 11:57 | 42.04148 | 28.17618 | 25773 ft | 357 kts | 303° |
| 2026-02-19 11:57 | 42.05491 | 28.14796 | 26129 ft | 358 kts | 303° |
| 2026-02-19 11:58 | 42.06814 | 28.12004 | 26494 ft | 359 kts | 303° |
| 2026-02-19 11:58 | 42.08164 | 28.09180 | 26873 ft | 360 kts | 303° |
| 2026-02-19 11:58 | 42.09535 | 28.06351 | 27242 ft | 360 kts | 303° |